Time;durP1;ratioP1;P1;durP2;ratioP2;P2;SDS_P1;SDS_P2;PMS_P1;PMS_P2;Temp;Humidity;BMP_temperature;BMP_pressure;BME280_temperature;BME280_humidity;BME280_pressure;Samples;Min_cycle;Max_cycle;Signal;HPM_P1;HPM_P2
2023/05/09 00:01:13;;;;;;;6.75;2.97;;;;;;;;;;5061128;28;20930;-81
2023/05/09 00:03:46;;;;;;;7.32;2.83;;;;;;;;;;5059278;28;20786;-83
2023/05/09 00:06:14;;;;;;;6.25;3.03;;;;;;;;;;5063898;28;20432;-81
2023/05/09 00:08:47;;;;;;;6.30;3.10;;;;;;;;;;5060591;28;20423;-81
2023/05/09 00:11:21;;;;;;;5.47;2.97;;;;;;;;;;5054887;28;20765;-81
2023/05/09 00:13:54;;;;;;;9.20;3.00;;;;;;;;;;5053587;28;20429;-81
2023/05/09 00:16:27;;;;;;;6.93;3.10;;;;;;;;;;5058132;28;20429;-81
2023/05/09 00:19:00;;;;;;;5.73;2.93;;;;;;;;;;5061495;28;20417;-80
2023/05/09 00:21:28;;;;;;;6.50;3.05;;;;;;;;;;5061511;28;20428;-81
2023/05/09 00:23:55;;;;;;;6.72;3.10;;;;;;;;;;5060082;28;20422;-81
2023/05/09 00:26:29;;;;;;;5.63;2.80;;;;;;;;;;5061789;28;20416;-81
2023/05/09 00:29:02;;;;;;;7.15;2.92;;;;;;;;;;5061342;28;20891;-80
2023/05/09 00:31:35;;;;;;;6.00;3.03;;;;;;;;;;5060477;28;20425;-80
2023/05/09 00:34:03;;;;;;;6.22;3.10;;;;;;;;;;5063605;28;20899;-80
2023/05/09 00:36:31;;;;;;;5.50;2.90;;;;;;;;;;5060402;28;20422;-80
2023/05/09 00:39:04;;;;;;;5.43;2.90;;;;;;;;;;5061193;28;20926;-80
2023/05/09 00:41:38;;;;;;;6.50;3.30;;;;;;;;;;5058763;28;20454;-79
2023/05/09 00:44:11;;;;;;;6.95;3.35;;;;;;;;;;5063258;28;20416;-80
2023/05/09 00:46:39;;;;;;;6.38;3.20;;;;;;;;;;5068092;28;20905;-80
2023/05/09 00:49:07;;;;;;;6.85;3.20;;;;;;;;;;5060739;28;20419;-81
2023/05/09 00:51:40;;;;;;;7.85;3.15;;;;;;;;;;5057001;28;20424;-81
2023/05/09 00:54:08;;;;;;;5.23;3.17;;;;;;;;;;5060312;28;20427;-81
2023/05/09 00:56:42;;;;;;;5.77;3.10;;;;;;;;;;5060850;28;20434;-80
2023/05/09 00:59:15;;;;;;;5.97;3.00;;;;;;;;;;5060831;28;20905;-81
2023/05/09 01:01:47;;;;;;;6.53;3.20;;;;;;;;;;5062450;28;20494;-80
2023/05/09 01:04:20;;;;;;;7.65;3.25;;;;;;;;;;5058199;28;20425;-80
2023/05/09 01:06:57;;;;;;;6.97;3.50;;;;;;;;;;5059896;28;20415;-81
2023/05/09 01:09:32;;;;;;;7.20;3.70;;;;;;;;;;5077528;28;20419;-81
2023/05/09 01:12:16;;;;;;;6.57;3.30;;;;;;;;;;5056769;28;20866;-80
2023/05/09 01:14:54;;;;;;;8.07;3.40;;;;;;;;;;5071995;28;20417;-81
2023/05/09 01:17:30;;;;;;;7.05;3.45;;;;;;;;;;5067692;28;20438;-80
2023/05/09 01:20:01;;;;;;;7.97;3.00;;;;;;;;;;5066011;28;20777;-80
2023/05/09 01:22:30;;;;;;;8.57;3.55;;;;;;;;;;5057823;28;20429;-81
2023/05/09 01:25:12;;;;;;;6.53;3.33;;;;;;;;;;5059141;28;20911;-80
2023/05/09 01:27:50;;;;;;;8.10;3.35;;;;;;;;;;5058466;28;20420;-81
2023/05/09 01:30:25;;;;;;;7.90;3.63;;;;;;;;;;5074839;28;20817;-80
2023/05/09 01:32:56;;;;;;;9.02;3.67;;;;;;;;;;5058330;28;20425;-79
2023/05/09 01:35:30;;;;;;;6.28;3.42;;;;;;;;;;5060020;28;20803;-80
2023/05/09 01:38:06;;;;;;;6.97;3.47;;;;;;;;;;5066767;28;20876;-80
2023/05/09 01:40:40;;;;;;;6.47;3.50;;;;;;;;;;5059789;28;20421;-80
2023/05/09 01:43:13;;;;;;;6.20;3.30;;;;;;;;;;5074102;28;20420;-80
2023/05/09 01:45:43;;;;;;;7.60;3.50;;;;;;;;;;5075047;28;20789;-80
2023/05/09 01:48:12;;;;;;;5.97;3.30;;;;;;;;;;5061098;28;20420;-80
2023/05/09 01:50:41;;;;;;;10.20;3.75;;;;;;;;;;5058075;28;20427;-80
2023/05/09 01:53:10;;;;;;;7.43;3.63;;;;;;;;;;5059427;28;20416;-80
2023/05/09 01:55:43;;;;;;;7.10;3.70;;;;;;;;;;5063653;28;20458;-80
2023/05/09 01:58:17;;;;;;;6.82;3.55;;;;;;;;;;5057727;28;20415;-81
2023/05/09 02:00:51;;;;;;;6.43;3.50;;;;;;;;;;5058539;28;21163;-81
2023/05/09 02:03:25;;;;;;;8.05;3.70;;;;;;;;;;5058420;28;20431;-81
2023/05/09 02:05:58;;;;;;;7.15;3.67;;;;;;;;;;5059687;28;20429;-80
2023/05/09 02:08:31;;;;;;;8.90;3.90;;;;;;;;;;5060566;28;20430;-80
2023/05/09 02:11:00;;;;;;;6.45;3.72;;;;;;;;;;5060598;28;20419;-80
2023/05/09 02:13:28;;;;;;;8.30;4.00;;;;;;;;;;5060064;28;20428;-81
2023/05/09 02:16:02;;;;;;;6.97;3.97;;;;;;;;;;5060453;28;20432;-80
2023/05/09 02:18:36;;;;;;;7.43;4.18;;;;;;;;;;5063574;28;20423;-81
2023/05/09 02:21:04;;;;;;;7.63;3.78;;;;;;;;;;5057862;28;20425;-81
2023/05/09 02:23:38;;;;;;;7.45;3.70;;;;;;;;;;5061201;28;20417;-80
2023/05/09 02:26:07;;;;;;;8.57;4.05;;;;;;;;;;5057950;28;21008;-80
2023/05/09 02:28:41;;;;;;;8.40;3.90;;;;;;;;;;5066230;28;20428;-80
2023/05/09 02:31:16;;;;;;;8.88;4.40;;;;;;;;;;5059743;28;20428;-80
2023/05/09 02:33:45;;;;;;;9.18;4.25;;;;;;;;;;5058009;28;20416;-80
2023/05/09 02:36:14;;;;;;;8.53;4.00;;;;;;;;;;5056829;28;20474;-80
2023/05/09 02:38:42;;;;;;;7.15;4.00;;;;;;;;;;5057916;28;20451;-80
2023/05/09 02:41:15;;;;;;;8.50;4.20;;;;;;;;;;5057072;28;20788;-80
2023/05/09 02:43:43;;;;;;;7.88;4.32;;;;;;;;;;5059559;28;20427;-80
2023/05/09 02:46:17;;;;;;;6.72;3.97;;;;;;;;;;5057583;28;20433;-81
2023/05/09 02:48:45;;;;;;;7.25;4.18;;;;;;;;;;5066677;28;20764;-81
2023/05/09 02:51:17;;;;;;;8.15;4.40;;;;;;;;;;5058389;28;20464;-80
2023/05/09 02:53:50;;;;;;;7.65;4.22;;;;;;;;;;5056715;28;20921;-79
2023/05/09 02:56:18;;;;;;;9.07;4.40;;;;;;;;;;5059261;28;20786;-80
2023/05/09 02:58:51;;;;;;;9.43;4.60;;;;;;;;;;5060128;28;20427;-81
2023/05/09 03:01:25;;;;;;;8.07;4.43;;;;;;;;;;5061342;28;20419;-80
2023/05/09 03:03:58;;;;;;;7.90;4.43;;;;;;;;;;5065691;28;20901;-80
2023/05/09 03:06:25;;;;;;;8.70;4.53;;;;;;;;;;5057109;28;20428;-80
2023/05/09 03:08:53;;;;;;;7.93;4.25;;;;;;;;;;5056461;28;20415;-79
2023/05/09 03:11:22;;;;;;;8.95;4.72;;;;;;;;;;5064797;28;20447;-80
2023/05/09 03:13:50;;;;;;;7.43;4.65;;;;;;;;;;5059480;28;20419;-80
2023/05/09 03:16:18;;;;;;;8.23;4.50;;;;;;;;;;5054860;28;20442;-80
2023/05/09 03:18:47;;;;;;;7.28;4.38;;;;;;;;;;5055420;28;20429;-80
2023/05/09 03:21:20;;;;;;;7.82;4.50;;;;;;;;;;5058687;28;20913;-79
2023/05/09 03:23:53;;;;;;;8.55;4.60;;;;;;;;;;5063575;28;20935;-80
2023/05/09 03:26:21;;;;;;;8.13;4.60;;;;;;;;;;5058821;28;21101;-80
2023/05/09 03:28:49;;;;;;;7.32;4.70;;;;;;;;;;5056482;28;20432;-80
2023/05/09 03:31:22;;;;;;;7.78;4.57;;;;;;;;;;5057517;28;20435;-80
2023/05/09 03:33:56;;;;;;;11.23;4.78;;;;;;;;;;5056801;28;20417;-80
2023/05/09 03:36:30;;;;;;;8.38;4.47;;;;;;;;;;5057957;28;20435;-79
2023/05/09 03:38:59;;;;;;;9.00;4.35;;;;;;;;;;5066371;28;20764;-80
2023/05/09 03:41:32;;;;;;;8.00;4.80;;;;;;;;;;5057869;28;20425;-80
2023/05/09 03:44:00;;;;;;;9.30;4.75;;;;;;;;;;5054693;28;20429;-80
2023/05/09 03:46:28;;;;;;;10.05;4.78;;;;;;;;;;5056779;28;20419;-79
2023/05/09 03:49:03;;;;;;;10.07;4.90;;;;;;;;;;5054509;28;20421;-81
2023/05/09 03:51:36;;;;;;;8.43;4.90;;;;;;;;;;5057504;28;20403;-79
2023/05/09 03:54:13;;;;;;;8.50;4.65;;;;;;;;;;5058588;28;20416;-80
2023/05/09 03:56:41;;;;;;;8.90;4.70;;;;;;;;;;5058246;28;20413;-80
2023/05/09 03:59:09;;;;;;;9.15;5.00;;;;;;;;;;5057549;28;20883;-80
2023/05/09 04:01:42;;;;;;;8.63;5.00;;;;;;;;;;5056635;28;20422;-80
2023/05/09 04:04:11;;;;;;;9.53;4.80;;;;;;;;;;5058795;28;20421;-81
2023/05/09 04:06:44;;;;;;;9.98;4.80;;;;;;;;;;5076207;28;20909;-80
2023/05/09 04:09:18;;;;;;;10.75;4.85;;;;;;;;;;5055273;28;20429;-80
2023/05/09 04:11:47;;;;;;;9.23;4.88;;;;;;;;;;5064770;28;20419;-80
2023/05/09 04:14:15;;;;;;;9.00;4.43;;;;;;;;;;5058157;28;20427;-80
2023/05/09 04:16:48;;;;;;;10.23;4.57;;;;;;;;;;5059292;28;20770;-80
2023/05/09 04:19:17;;;;;;;8.18;4.50;;;;;;;;;;5056189;28;20780;-80
2023/05/09 04:21:51;;;;;;;9.15;4.68;;;;;;;;;;5060320;28;20415;-81
2023/05/09 04:24:18;;;;;;;8.43;4.80;;;;;;;;;;5056560;28;20901;-81
2023/05/09 04:26:48;;;;;;;7.72;4.38;;;;;;;;;;5064847;28;21230;-81
2023/05/09 04:29:23;;;;;;;11.38;4.78;;;;;;;;;;5054810;28;20428;-80
2023/05/09 04:31:56;;;;;;;8.20;4.60;;;;;;;;;;5056803;28;20418;-80
2023/05/09 04:34:28;;;;;;;7.80;4.75;;;;;;;;;;5059438;28;20779;-80
2023/05/09 04:37:06;;;;;;;10.13;5.00;;;;;;;;;;5065784;28;20888;-80
2023/05/09 04:39:39;;;;;;;8.03;4.90;;;;;;;;;;5057628;28;20417;-82
2023/05/09 04:42:15;;;;;;;11.43;4.73;;;;;;;;;;5054508;28;20426;-80
2023/05/09 04:44:43;;;;;;;8.98;5.10;;;;;;;;;;5059064;28;21265;-81
2023/05/09 04:47:16;;;;;;;8.65;4.78;;;;;;;;;;5057074;28;20430;-80
2023/05/09 04:49:50;;;;;;;7.85;4.60;;;;;;;;;;5058511;28;20428;-80
2023/05/09 04:52:23;;;;;;;9.27;4.90;;;;;;;;;;5057830;28;20436;-81
2023/05/09 04:54:51;;;;;;;9.15;4.85;;;;;;;;;;5058587;28;20447;-81
2023/05/09 04:57:27;;;;;;;8.35;4.53;;;;;;;;;;5056977;28;20419;-80
2023/05/09 05:00:01;;;;;;;7.63;4.70;;;;;;;;;;5055925;28;20467;-81
2023/05/09 05:02:30;;;;;;;9.07;4.82;;;;;;;;;;5055800;28;20437;-81
2023/05/09 05:04:59;;;;;;;11.00;4.55;;;;;;;;;;5063480;28;20437;-81
2023/05/09 05:07:27;;;;;;;9.75;4.70;;;;;;;;;;5061255;28;20419;-81
2023/05/09 05:09:55;;;;;;;8.32;4.30;;;;;;;;;;5061329;28;20880;-82
2023/05/09 05:12:28;;;;;;;7.82;4.35;;;;;;;;;;5057553;28;20440;-81
2023/05/09 05:14:56;;;;;;;7.95;4.38;;;;;;;;;;5060045;28;20422;-80
2023/05/09 05:17:24;;;;;;;9.60;4.43;;;;;;;;;;5062064;28;20442;-80
2023/05/09 05:20:02;;;;;;;7.43;4.50;;;;;;;;;;5054023;28;20758;-80
2023/05/09 05:22:35;;;;;;;6.63;4.22;;;;;;;;;;5064701;28;20423;-82
2023/05/09 05:25:08;;;;;;;8.60;4.10;;;;;;;;;;5057676;28;20422;-84
2023/05/09 05:27:42;;;;;;;6.85;3.83;;;;;;;;;;5057746;28;20425;-82
2023/05/09 05:30:16;;;;;;;6.40;4.07;;;;;;;;;;5058517;28;20456;-81
2023/05/09 05:32:43;;;;;;;10.45;4.78;;;;;;;;;;5060353;28;21278;-80
2023/05/09 05:35:22;;;;;;;7.88;4.35;;;;;;;;;;5063957;28;20436;-83
2023/05/09 05:37:50;;;;;;;8.77;4.20;;;;;;;;;;5057985;28;20444;-82
2023/05/09 05:40:19;;;;;;;9.05;4.50;;;;;;;;;;5054214;28;20425;-81
2023/05/09 05:42:49;;;;;;;7.50;4.20;;;;;;;;;;5057806;28;20431;-81
2023/05/09 05:45:17;;;;;;;8.18;4.63;;;;;;;;;;5065822;28;20426;-83
2023/05/09 05:47:54;;;;;;;7.07;4.30;;;;;;;;;;5061039;28;20414;-81
2023/05/09 05:50:24;;;;;;;7.97;4.85;;;;;;;;;;5060860;28;21155;-81
2023/05/09 05:52:55;;;;;;;8.63;4.28;;;;;;;;;;5047331;28;22405;-82
2023/05/09 05:55:28;;;;;;;7.85;4.18;;;;;;;;;;5059905;28;20416;-82
2023/05/09 05:57:57;;;;;;;9.93;4.63;;;;;;;;;;5059419;28;20422;-81
2023/05/09 06:00:25;;;;;;;8.02;4.30;;;;;;;;;;5059133;28;20415;-81
2023/05/09 06:03:03;;;;;;;10.57;4.70;;;;;;;;;;5060942;28;20411;-83
2023/05/09 06:05:53;;;;;;;7.82;4.30;;;;;;;;;;5058467;28;20432;-82
2023/05/09 06:08:26;;;;;;;10.45;4.40;;;;;;;;;;5061032;28;20411;-84
2023/05/09 06:11:00;;;;;;;8.25;4.32;;;;;;;;;;5058684;28;20957;-83
2023/05/09 06:13:33;;;;;;;7.95;4.10;;;;;;;;;;5060575;28;20421;-83
2023/05/09 06:16:07;;;;;;;7.83;4.43;;;;;;;;;;5058355;28;20492;-82
2023/05/09 06:18:40;;;;;;;7.85;4.50;;;;;;;;;;5066679;28;20420;-81
2023/05/09 06:21:17;;;;;;;8.25;4.28;;;;;;;;;;5067970;28;20413;-82
2023/05/09 06:23:45;;;;;;;7.25;4.03;;;;;;;;;;5056313;28;20432;-81
2023/05/09 06:26:18;;;;;;;8.35;4.32;;;;;;;;;;5056523;28;20439;-80
2023/05/09 06:28:51;;;;;;;8.30;4.43;;;;;;;;;;5055998;28;20432;-81
2023/05/09 06:31:18;;;;;;;7.75;4.35;;;;;;;;;;5052008;28;20417;-82
2023/05/09 06:33:51;;;;;;;8.77;4.80;;;;;;;;;;5043085;28;20423;-81
2023/05/09 06:36:25;;;;;;;8.23;4.20;;;;;;;;;;5045935;28;20419;-81
2023/05/09 06:38:58;;;;;;;8.20;4.10;;;;;;;;;;5041921;28;20416;-81
2023/05/09 06:41:26;;;;;;;6.90;4.27;;;;;;;;;;5048909;28;21107;-81
2023/05/09 06:44:01;;;;;;;8.57;4.18;;;;;;;;;;5044719;28;20446;-81
2023/05/09 06:46:29;;;;;;;8.52;4.40;;;;;;;;;;5049327;28;20412;-81
2023/05/09 06:49:01;;;;;;;8.25;4.50;;;;;;;;;;5045167;28;20872;-82
2023/05/09 06:51:36;;;;;;;8.65;4.45;;;;;;;;;;5045119;28;20975;-82
2023/05/09 06:54:03;;;;;;;8.07;4.33;;;;;;;;;;5039480;28;20424;-82
2023/05/09 06:56:31;;;;;;;8.35;3.97;;;;;;;;;;5043309;28;20785;-83
2023/05/09 06:59:04;;;;;;;8.43;4.30;;;;;;;;;;5041826;28;20419;-81
2023/05/09 07:01:32;;;;;;;8.70;4.50;;;;;;;;;;5039762;28;20427;-82
2023/05/09 07:04:00;;;;;;;7.47;4.00;;;;;;;;;;5043649;28;20760;-82
2023/05/09 07:06:27;;;;;;;8.57;4.30;;;;;;;;;;5036644;28;20427;-81
2023/05/09 07:09:03;;;;;;;8.00;4.47;;;;;;;;;;5044608;28;20426;-81
2023/05/09 07:11:33;;;;;;;8.80;4.22;;;;;;;;;;5040010;28;20419;-82
2023/05/09 07:14:06;;;;;;;7.03;4.10;;;;;;;;;;5040463;28;20431;-81
2023/05/09 07:16:39;;;;;;;9.13;4.15;;;;;;;;;;5045377;28;20431;-82
2023/05/09 07:19:12;;;;;;;9.57;4.43;;;;;;;;;;5046688;28;20423;-81
2023/05/09 07:21:39;;;;;;;9.40;4.20;;;;;;;;;;5036051;28;20432;-82
2023/05/09 07:24:13;;;;;;;9.57;4.18;;;;;;;;;;5036120;28;20420;-80
2023/05/09 07:26:41;;;;;;;8.05;4.00;;;;;;;;;;5037047;28;20419;-83
2023/05/09 07:29:14;;;;;;;7.60;4.18;;;;;;;;;;5045505;28;20843;-83
2023/05/09 07:31:47;;;;;;;7.53;4.15;;;;;;;;;;5046083;28;20423;-81
2023/05/09 07:34:15;;;;;;;7.17;3.70;;;;;;;;;;5049318;28;20458;-82
2023/05/09 07:36:43;;;;;;;7.35;3.95;;;;;;;;;;5043302;28;20415;-81
2023/05/09 07:39:11;;;;;;;8.25;3.75;;;;;;;;;;5037815;28;20872;-82
2023/05/09 07:41:45;;;;;;;7.25;3.88;;;;;;;;;;5036156;28;20419;-82
2023/05/09 07:44:13;;;;;;;7.13;3.80;;;;;;;;;;5038413;28;20408;-81
2023/05/09 07:46:41;;;;;;;7.50;3.75;;;;;;;;;;5037775;28;21151;-81
2023/05/09 07:49:09;;;;;;;5.60;3.53;;;;;;;;;;5036153;28;21106;-81
2023/05/09 07:51:37;;;;;;;6.68;3.55;;;;;;;;;;5036977;28;20423;-80
2023/05/09 07:54:09;;;;;;;8.30;3.63;;;;;;;;;;5044181;28;20418;-81
2023/05/09 07:56:42;;;;;;;6.78;3.85;;;;;;;;;;5046458;28;20423;-80
2023/05/09 07:59:17;;;;;;;9.55;3.72;;;;;;;;;;5042317;28;20419;-82
2023/05/09 08:01:45;;;;;;;8.07;3.80;;;;;;;;;;5038840;28;20410;-81
2023/05/09 08:04:12;;;;;;;7.18;3.70;;;;;;;;;;5038881;28;20403;-81
2023/05/09 08:06:45;;;;;;;9.05;4.20;;;;;;;;;;5039101;28;20423;-82
2023/05/09 08:09:18;;;;;;;7.40;3.90;;;;;;;;;;5039515;28;21091;-81
2023/05/09 08:11:46;;;;;;;7.78;3.88;;;;;;;;;;5041169;28;20423;-81
2023/05/09 08:14:14;;;;;;;7.03;3.40;;;;;;;;;;5048352;28;20772;-80
2023/05/09 08:16:43;;;;;;;8.68;3.70;;;;;;;;;;5043757;28;20853;-81
2023/05/09 08:19:11;;;;;;;9.15;3.70;;;;;;;;;;5039359;28;20915;-81
2023/05/09 08:21:39;;;;;;;6.65;3.35;;;;;;;;;;5047648;28;20431;-82
2023/05/09 08:24:08;;;;;;;7.18;3.67;;;;;;;;;;5043873;28;20427;-82
2023/05/09 08:26:36;;;;;;;6.82;3.50;;;;;;;;;;5042366;28;20423;-81
2023/05/09 08:29:09;;;;;;;6.38;3.60;;;;;;;;;;5051335;28;20412;-81
2023/05/09 08:31:43;;;;;;;7.20;3.65;;;;;;;;;;5018458;28;20430;-80
2023/05/09 08:34:16;;;;;;;7.35;3.60;;;;;;;;;;5039667;28;20400;-80
2023/05/09 08:36:45;;;;;;;7.75;3.35;;;;;;;;;;5047756;28;20419;-81
2023/05/09 08:39:19;;;;;;;7.55;3.83;;;;;;;;;;5050192;28;20424;-80
2023/05/09 08:41:52;;;;;;;7.10;3.47;;;;;;;;;;5046523;28;20465;-80
2023/05/09 08:44:22;;;;;;;8.57;3.67;;;;;;;;;;5051631;28;20428;-82
2023/05/09 08:46:52;;;;;;;7.28;3.58;;;;;;;;;;5045042;28;20416;-79
2023/05/09 08:49:20;;;;;;;7.13;3.50;;;;;;;;;;5054391;28;20431;-80
2023/05/09 08:51:53;;;;;;;5.70;3.20;;;;;;;;;;5040869;28;20427;-81
2023/05/09 08:54:21;;;;;;;6.35;3.55;;;;;;;;;;5046563;28;20419;-82
2023/05/09 08:56:49;;;;;;;6.28;3.30;;;;;;;;;;5044619;28;20420;-82
2023/05/09 08:59:17;;;;;;;6.38;3.47;;;;;;;;;;5048149;28;20427;-82
2023/05/09 09:01:45;;;;;;;8.02;3.55;;;;;;;;;;5042434;28;20407;-82
2023/05/09 09:04:19;;;;;;;8.93;3.40;;;;;;;;;;5047557;28;20431;-81
2023/05/09 09:06:47;;;;;;;6.80;3.40;;;;;;;;;;5044458;28;20419;-81
2023/05/09 09:09:20;;;;;;;6.73;3.17;;;;;;;;;;5053501;28;20414;-81
2023/05/09 09:11:54;;;;;;;6.53;3.40;;;;;;;;;;5043538;28;20415;-81
2023/05/09 09:14:24;;;;;;;6.43;3.42;;;;;;;;;;5051224;28;20411;-82
2023/05/09 09:16:58;;;;;;;6.15;3.30;;;;;;;;;;5047506;28;20423;-83
2023/05/09 09:19:33;;;;;;;7.22;3.50;;;;;;;;;;5047369;28;20420;-81
2023/05/09 09:22:08;;;;;;;6.43;3.40;;;;;;;;;;5048329;28;20426;-80
2023/05/09 09:24:36;;;;;;;8.43;3.50;;;;;;;;;;5047559;28;20427;-80
2023/05/09 09:27:08;;;;;;;9.93;3.50;;;;;;;;;;5043365;28;20434;-80
2023/05/09 09:29:37;;;;;;;6.53;3.10;;;;;;;;;;5048245;28;20895;-81
2023/05/09 09:32:10;;;;;;;8.93;3.50;;;;;;;;;;5026083;28;20450;-82
2023/05/09 09:34:39;;;;;;;7.53;3.80;;;;;;;;;;5045600;28;20396;-82
2023/05/09 09:37:07;;;;;;;6.33;3.33;;;;;;;;;;5044424;28;20423;-81
2023/05/09 09:39:53;;;;;;;6.70;3.17;;;;;;;;;;5050740;28;21122;-81
2023/05/09 09:42:25;;;;;;;8.65;4.07;;;;;;;;;;5042861;28;20435;-80
2023/05/09 09:44:56;;;;;;;8.68;3.45;;;;;;;;;;5045383;28;20790;-82
2023/05/09 09:47:30;;;;;;;8.48;3.30;;;;;;;;;;5048620;28;20419;-83
2023/05/09 09:50:09;;;;;;;7.03;3.30;;;;;;;;;;5040305;28;20576;-83
2023/05/09 09:52:41;;;;;;;5.57;2.95;;;;;;;;;;5049422;28;20428;-82
2023/05/09 09:55:09;;;;;;;5.85;3.08;;;;;;;;;;5046960;28;20406;-81
2023/05/09 09:57:44;;;;;;;5.75;3.10;;;;;;;;;;5043371;28;20431;-80
2023/05/09 10:00:18;;;;;;;6.63;3.10;;;;;;;;;;5039524;28;20424;-80
2023/05/09 10:02:47;;;;;;;6.25;3.30;;;;;;;;;;5046868;28;20429;-81
2023/05/09 10:05:22;;;;;;;5.90;3.40;;;;;;;;;;5048517;28;20435;-82
2023/05/09 10:07:53;;;;;;;7.85;3.28;;;;;;;;;;5047141;28;21300;-80
2023/05/09 10:10:26;;;;;;;6.87;3.27;;;;;;;;;;5046041;28;20439;-80
2023/05/09 10:12:55;;;;;;;7.68;3.20;;;;;;;;;;5039730;28;20411;-80
2023/05/09 10:15:30;;;;;;;6.63;3.30;;;;;;;;;;5042842;28;20498;-80
2023/05/09 10:18:04;;;;;;;5.57;2.80;;;;;;;;;;5044455;28;20431;-81
2023/05/09 10:20:40;;;;;;;6.65;2.92;;;;;;;;;;5039345;28;20423;-82
2023/05/09 10:23:13;;;;;;;5.85;3.20;;;;;;;;;;5044724;28;20427;-82
2023/05/09 10:25:47;;;;;;;7.78;3.20;;;;;;;;;;5039263;28;20419;-83
2023/05/09 10:28:25;;;;;;;8.23;3.30;;;;;;;;;;5040941;28;20431;-80
2023/05/09 10:30:56;;;;;;;7.18;3.45;;;;;;;;;;5039004;28;20590;-83
2023/05/09 10:33:31;;;;;;;9.65;3.45;;;;;;;;;;5016949;28;20424;-81
2023/05/09 10:36:06;;;;;;;6.45;3.30;;;;;;;;;;5041049;28;20427;-81
2023/05/09 10:38:39;;;;;;;7.35;3.30;;;;;;;;;;5040568;28;20427;-81
2023/05/09 10:41:07;;;;;;;14.82;4.60;;;;;;;;;;5047194;28;20411;-80
2023/05/09 10:43:40;;;;;;;12.57;4.07;;;;;;;;;;5041835;28;20427;-82
2023/05/09 10:46:13;;;;;;;11.15;3.35;;;;;;;;;;5041328;28;20432;-81
2023/05/09 10:48:42;;;;;;;6.50;3.10;;;;;;;;;;5042648;28;20430;-82
2023/05/09 10:51:11;;;;;;;19.00;4.43;;;;;;;;;;5042891;28;20424;-80
2023/05/09 10:53:43;;;;;;;7.18;3.05;;;;;;;;;;5052437;28;20422;-85
2023/05/09 10:56:22;;;;;;;10.38;3.35;;;;;;;;;;5044792;28;20424;-82
2023/05/09 10:58:49;;;;;;;11.20;3.73;;;;;;;;;;5045400;28;20436;-82
2023/05/09 11:01:28;;;;;;;6.45;2.95;;;;;;;;;;5043255;28;20412;-81
2023/05/09 11:03:57;;;;;;;6.22;2.92;;;;;;;;;;5040168;28;20789;-81
2023/05/09 11:06:48;;;;;;;6.23;3.03;;;;;;;;;;5043361;28;21135;-82
2023/05/09 11:09:32;;;;;;;9.33;3.23;;;;;;;;;;5042784;28;20426;-81
2023/05/09 11:12:09;;;;;;;7.50;3.20;;;;;;;;;;5042437;28;20427;-83
2023/05/09 11:14:38;;;;;;;6.78;3.30;;;;;;;;;;5043605;28;20419;-81
2023/05/09 11:17:07;;;;;;;6.43;3.00;;;;;;;;;;5039905;28;20414;-81
2023/05/09 11:19:59;;;;;;;6.22;2.90;;;;;;;;;;5049079;28;20423;-80
2023/05/09 11:22:31;;;;;;;5.93;2.80;;;;;;;;;;5038147;28;20419;-83
2023/05/09 11:25:03;;;;;;;8.40;3.40;;;;;;;;;;5045088;28;21358;-83
2023/05/09 11:27:39;;;;;;;6.03;2.92;;;;;;;;;;5051668;28;20473;-82
2023/05/09 11:30:13;;;;;;;10.57;3.35;;;;;;;;;;5044962;28;20432;-80
2023/05/09 11:32:47;;;;;;;7.68;3.00;;;;;;;;;;5023318;28;20450;-82
2023/05/09 11:35:16;;;;;;;8.73;3.13;;;;;;;;;;5046324;28;20914;-82
2023/05/09 11:37:51;;;;;;;6.10;3.03;;;;;;;;;;5047874;28;20768;-80
2023/05/09 11:40:24;;;;;;;6.45;3.30;;;;;;;;;;5044929;28;20425;-84
2023/05/09 11:42:58;;;;;;;7.32;3.00;;;;;;;;;;5040997;28;20840;-81
2023/05/09 11:45:27;;;;;;;5.93;2.70;;;;;;;;;;5045531;28;20442;-81
2023/05/09 11:47:55;;;;;;;5.53;2.92;;;;;;;;;;5046394;28;20432;-83
2023/05/09 11:50:28;;;;;;;7.63;2.95;;;;;;;;;;5046246;28;20443;-80
2023/05/09 11:52:57;;;;;;;7.07;2.92;;;;;;;;;;5039569;28;20423;-81
2023/05/09 11:55:31;;;;;;;5.50;2.70;;;;;;;;;;5051408;28;20896;-82
2023/05/09 11:57:59;;;;;;;5.30;2.90;;;;;;;;;;5044512;28;20420;-82
2023/05/09 12:00:27;;;;;;;6.05;2.90;;;;;;;;;;5045506;28;20575;-83
2023/05/09 12:02:55;;;;;;;9.77;3.30;;;;;;;;;;5043256;28;20410;-82
2023/05/09 12:05:27;;;;;;;6.30;2.90;;;;;;;;;;5051376;28;20435;-81
2023/05/09 12:08:04;;;;;;;7.88;2.85;;;;;;;;;;5039706;28;21081;-80
2023/05/09 12:10:32;;;;;;;7.72;3.15;;;;;;;;;;5045615;28;20419;-81
2023/05/09 12:13:05;;;;;;;10.20;3.08;;;;;;;;;;5047664;28;20411;-80
2023/05/09 12:15:38;;;;;;;6.28;2.90;;;;;;;;;;5049475;28;20423;-81
2023/05/09 12:18:06;;;;;;;5.90;2.80;;;;;;;;;;5043925;28;20431;-83
2023/05/09 12:20:40;;;;;;;5.25;2.80;;;;;;;;;;5042965;28;20423;-80
2023/05/09 12:23:14;;;;;;;6.97;3.00;;;;;;;;;;5042968;28;20438;-82
2023/05/09 12:25:48;;;;;;;7.30;3.03;;;;;;;;;;5047094;28;20439;-81
2023/05/09 12:28:16;;;;;;;6.63;2.88;;;;;;;;;;5047588;28;20411;-81
2023/05/09 12:30:43;;;;;;;5.80;2.80;;;;;;;;;;5042769;28;21065;-82
2023/05/09 12:33:12;;;;;;;5.85;2.90;;;;;;;;;;5028951;28;20438;-82
2023/05/09 12:35:39;;;;;;;9.10;2.70;;;;;;;;;;5041532;28;20425;-80
2023/05/09 12:38:15;;;;;;;9.18;3.08;;;;;;;;;;5042326;28;20419;-80
2023/05/09 12:40:48;;;;;;;5.95;3.00;;;;;;;;;;5040953;28;21053;-80
2023/05/09 12:43:21;;;;;;;5.93;3.00;;;;;;;;;;5051970;28;20431;-79
2023/05/09 12:45:52;;;;;;;7.65;2.92;;;;;;;;;;5042025;28;20420;-82
2023/05/09 12:48:25;;;;;;;7.18;3.20;;;;;;;;;;5045970;28;20416;-81
2023/05/09 12:51:02;;;;;;;7.90;3.10;;;;;;;;;;5046662;28;21107;-81
2023/05/09 12:53:31;;;;;;;6.93;3.00;;;;;;;;;;5047624;28;20434;-81
2023/05/09 12:56:01;;;;;;;5.35;2.72;;;;;;;;;;5043152;28;20426;-80
2023/05/09 12:58:34;;;;;;;6.55;3.10;;;;;;;;;;5047415;28;20431;-80
2023/05/09 13:01:03;;;;;;;7.50;2.92;;;;;;;;;;5046609;28;20416;-81
2023/05/09 13:03:37;;;;;;;6.33;2.80;;;;;;;;;;5045871;28;20415;-80
2023/05/09 13:06:06;;;;;;;12.05;2.83;;;;;;;;;;5042949;28;20946;-81
2023/05/09 13:08:36;;;;;;;6.05;2.70;;;;;;;;;;5042340;28;20522;-80
2023/05/09 13:11:10;;;;;;;7.35;2.80;;;;;;;;;;5049571;28;20415;-81
2023/05/09 13:13:38;;;;;;;7.60;2.80;;;;;;;;;;5040740;28;20430;-79
2023/05/09 13:16:11;;;;;;;5.30;2.77;;;;;;;;;;5041571;28;20430;-81
2023/05/09 13:18:44;;;;;;;5.78;2.80;;;;;;;;;;5041593;28;20435;-79
2023/05/09 13:21:12;;;;;;;6.53;2.70;;;;;;;;;;5047281;28;21268;-80
2023/05/09 13:23:48;;;;;;;29.23;4.93;;;;;;;;;;5040886;28;20424;-81
2023/05/09 13:26:21;;;;;;;6.55;2.60;;;;;;;;;;5038285;28;20438;-79
2023/05/09 13:28:49;;;;;;;5.30;2.80;;;;;;;;;;5039898;28;20431;-80
2023/05/09 13:31:22;;;;;;;6.22;2.42;;;;;;;;;;5046521;28;20431;-81
2023/05/09 13:33:50;;;;;;;5.95;2.50;;;;;;;;;;5007494;28;20433;-82
2023/05/09 13:36:18;;;;;;;5.07;2.60;;;;;;;;;;5025033;28;20410;-83
2023/05/09 13:38:52;;;;;;;6.95;2.63;;;;;;;;;;5028157;28;20433;-83
2023/05/09 13:41:22;;;;;;;4.88;2.53;;;;;;;;;;5029688;28;20777;-85
2023/05/09 13:43:50;;;;;;;10.25;2.42;;;;;;;;;;5028410;28;20417;-83
2023/05/09 13:46:18;;;;;;;5.50;2.60;;;;;;;;;;5021127;28;20424;-84
2023/05/09 13:49:21;;;;;;;6.03;2.60;;;;;;;;;;5036507;28;20417;-81
2023/05/09 13:52:07;;;;;;;6.32;2.60;;;;;;;;;;5030148;28;20410;-83
2023/05/09 13:54:37;;;;;;;6.13;2.40;;;;;;;;;;5026738;28;20436;-82
2023/05/09 13:57:05;;;;;;;5.07;2.35;;;;;;;;;;5022166;28;20425;-81
2023/05/09 13:59:33;;;;;;;8.97;2.70;;;;;;;;;;5020672;28;20417;-85
2023/05/09 14:02:01;;;;;;;8.30;2.65;;;;;;;;;;5022062;28;20413;-83
2023/05/09 14:04:30;;;;;;;5.28;2.60;;;;;;;;;;5036427;28;20413;-83
2023/05/09 14:07:03;;;;;;;5.32;2.28;;;;;;;;;;5026172;28;20433;-81
2023/05/09 14:09:38;;;;;;;6.18;2.30;;;;;;;;;;5032746;28;20425;-81
2023/05/09 14:12:06;;;;;;;6.65;2.35;;;;;;;;;;5025276;28;20413;-82
2023/05/09 14:14:34;;;;;;;7.57;2.03;;;;;;;;;;5027356;28;20452;-81
2023/05/09 14:17:12;;;;;;;5.20;2.17;;;;;;;;;;5023028;28;20979;-82
2023/05/09 14:19:45;;;;;;;5.17;2.40;;;;;;;;;;5027618;28;20417;-84
2023/05/09 14:22:14;;;;;;;5.65;2.03;;;;;;;;;;5021091;28;20440;-84
2023/05/09 14:24:49;;;;;;;5.53;2.50;;;;;;;;;;5030427;28;20444;-81
2023/05/09 14:27:22;;;;;;;7.03;2.60;;;;;;;;;;5022789;28;20486;-82
2023/05/09 14:29:55;;;;;;;7.97;2.40;;;;;;;;;;5018977;28;21135;-85
2023/05/09 14:32:22;;;;;;;4.15;2.10;;;;;;;;;;5016362;28;20430;-82
2023/05/09 14:34:50;;;;;;;8.88;2.47;;;;;;;;;;5023260;28;20974;-83
2023/05/09 14:37:18;;;;;;;7.10;2.15;;;;;;;;;;5023391;28;20952;-83
2023/05/09 14:39:47;;;;;;;4.70;2.13;;;;;;;;;;5024517;28;20437;-83
2023/05/09 14:42:21;;;;;;;7.55;2.25;;;;;;;;;;5018414;28;20429;-82
2023/05/09 14:44:49;;;;;;;5.47;2.10;;;;;;;;;;5018213;28;20430;-83
2023/05/09 14:47:16;;;;;;;6.85;2.00;;;;;;;;;;5019702;28;20432;-82
2023/05/09 14:49:49;;;;;;;7.22;2.42;;;;;;;;;;5020305;28;21788;-82
2023/05/09 14:52:17;;;;;;;7.60;2.30;;;;;;;;;;5022679;28;20413;-82
2023/05/09 14:54:50;;;;;;;5.10;2.23;;;;;;;;;;5028372;28;20433;-85
2023/05/09 14:57:24;;;;;;;5.22;2.17;;;;;;;;;;5029625;28;20874;-84
2023/05/09 14:59:57;;;;;;;4.63;2.15;;;;;;;;;;5022879;28;20429;-81
2023/05/09 15:02:30;;;;;;;9.40;3.00;;;;;;;;;;5028018;28;20437;-82
2023/05/09 15:05:02;;;;;;;6.00;2.45;;;;;;;;;;5026837;28;20425;-82
2023/05/09 15:07:30;;;;;;;5.65;2.30;;;;;;;;;;5030441;28;20440;-84
2023/05/09 15:09:58;;;;;;;5.43;2.42;;;;;;;;;;5025299;28;20413;-82